sensor_id;sensor_type;location;lat;lon;timestamp;temperature;humidity
12013;DHT22;6065;48.138;16.402;2023-04-24T00:01:58;16.20;99.90
12013;DHT22;6065;48.138;16.402;2023-04-24T00:04:24;16.20;99.90
12013;DHT22;6065;48.138;16.402;2023-04-24T00:06:52;16.20;99.90
12013;DHT22;6065;48.138;16.402;2023-04-24T00:09:22;16.20;99.90
12013;DHT22;6065;48.138;16.402;2023-04-24T00:11:49;16.20;99.90
12013;DHT22;6065;48.138;16.402;2023-04-24T00:14:17;16.20;99.90
12013;DHT22;6065;48.138;16.402;2023-04-24T00:16:44;16.20;99.90
12013;DHT22;6065;48.138;16.402;2023-04-24T00:19:10;16.10;99.90
12013;DHT22;6065;48.138;16.402;2023-04-24T00:21:38;16.10;99.90
12013;DHT22;6065;48.138;16.402;2023-04-24T00:24:04;16.10;99.90
12013;DHT22;6065;48.138;16.402;2023-04-24T00:26:31;16.10;99.90
12013;DHT22;6065;48.138;16.402;2023-04-24T00:28:58;16.10;99.90
12013;DHT22;6065;48.138;16.402;2023-04-24T00:31:26;16.10;99.90
12013;DHT22;6065;48.138;16.402;2023-04-24T00:33:52;16.10;99.90
12013;DHT22;6065;48.138;16.402;2023-04-24T00:36:19;16.10;99.90
12013;DHT22;6065;48.138;16.402;2023-04-24T00:38:46;16.10;99.90
12013;DHT22;6065;48.138;16.402;2023-04-24T00:41:12;16.00;99.90
12013;DHT22;6065;48.138;16.402;2023-04-24T00:43:39;16.00;99.90
12013;DHT22;6065;48.138;16.402;2023-04-24T00:46:06;16.00;99.90
12013;DHT22;6065;48.138;16.402;2023-04-24T00:48:34;16.00;99.90
12013;DHT22;6065;48.138;16.402;2023-04-24T00:51:01;16.00;99.90
12013;DHT22;6065;48.138;16.402;2023-04-24T00:53:28;16.00;99.90
12013;DHT22;6065;48.138;16.402;2023-04-24T00:55:55;16.00;99.90
12013;DHT22;6065;48.138;16.402;2023-04-24T00:58:22;16.00;99.90
12013;DHT22;6065;48.138;16.402;2023-04-24T01:00:49;15.90;99.90
12013;DHT22;6065;48.138;16.402;2023-04-24T01:03:18;15.90;99.90
12013;DHT22;6065;48.138;16.402;2023-04-24T01:05:46;15.90;99.90
12013;DHT22;6065;48.138;16.402;2023-04-24T01:08:13;15.90;99.90
12013;DHT22;6065;48.138;16.402;2023-04-24T01:10:41;15.80;99.90
12013;DHT22;6065;48.138;16.402;2023-04-24T01:13:07;15.80;99.90
12013;DHT22;6065;48.138;16.402;2023-04-24T01:15:34;15.80;99.90
12013;DHT22;6065;48.138;16.402;2023-04-24T01:18:01;15.70;99.90
12013;DHT22;6065;48.138;16.402;2023-04-24T01:20:28;15.70;99.90
12013;DHT22;6065;48.138;16.402;2023-04-24T01:22:56;15.60;99.90
12013;DHT22;6065;48.138;16.402;2023-04-24T01:25:23;15.60;99.90
12013;DHT22;6065;48.138;16.402;2023-04-24T01:27:51;15.50;99.90
12013;DHT22;6065;48.138;16.402;2023-04-24T01:30:18;15.50;99.90
12013;DHT22;6065;48.138;16.402;2023-04-24T01:32:44;15.50;99.90
12013;DHT22;6065;48.138;16.402;2023-04-24T01:35:11;15.50;99.90
12013;DHT22;6065;48.138;16.402;2023-04-24T01:37:38;15.40;99.90
12013;DHT22;6065;48.138;16.402;2023-04-24T01:40:07;15.40;99.90
12013;DHT22;6065;48.138;16.402;2023-04-24T01:42:34;15.40;99.90
12013;DHT22;6065;48.138;16.402;2023-04-24T01:45:01;15.30;99.90
12013;DHT22;6065;48.138;16.402;2023-04-24T01:47:28;15.30;99.90
12013;DHT22;6065;48.138;16.402;2023-04-24T01:49:56;15.40;99.90
12013;DHT22;6065;48.138;16.402;2023-04-24T01:52:22;15.30;99.90
12013;DHT22;6065;48.138;16.402;2023-04-24T01:54:50;15.30;99.90
12013;DHT22;6065;48.138;16.402;2023-04-24T01:57:18;15.30;99.90
12013;DHT22;6065;48.138;16.402;2023-04-24T01:59:44;15.20;99.90
12013;DHT22;6065;48.138;16.402;2023-04-24T02:02:11;15.20;99.90
12013;DHT22;6065;48.138;16.402;2023-04-24T02:04:39;15.10;99.90
12013;DHT22;6065;48.138;16.402;2023-04-24T02:07:05;15.10;99.90
12013;DHT22;6065;48.138;16.402;2023-04-24T02:09:32;15.10;99.90
12013;DHT22;6065;48.138;16.402;2023-04-24T02:11:59;15.00;99.90
12013;DHT22;6065;48.138;16.402;2023-04-24T02:14:27;15.00;99.90
12013;DHT22;6065;48.138;16.402;2023-04-24T02:16:53;15.00;99.90
12013;DHT22;6065;48.138;16.402;2023-04-24T02:19:20;15.00;99.90
12013;DHT22;6065;48.138;16.402;2023-04-24T02:21:47;15.00;99.90
12013;DHT22;6065;48.138;16.402;2023-04-24T02:24:13;15.00;99.90
12013;DHT22;6065;48.138;16.402;2023-04-24T02:26:41;15.00;99.90
12013;DHT22;6065;48.138;16.402;2023-04-24T02:29:07;15.00;99.90
12013;DHT22;6065;48.138;16.402;2023-04-24T02:31:35;14.90;99.90
12013;DHT22;6065;48.138;16.402;2023-04-24T02:34:02;14.90;99.90
12013;DHT22;6065;48.138;16.402;2023-04-24T02:36:29;14.90;99.90
12013;DHT22;6065;48.138;16.402;2023-04-24T02:38:56;14.90;99.90
12013;DHT22;6065;48.138;16.402;2023-04-24T02:41:23;14.90;99.90
12013;DHT22;6065;48.138;16.402;2023-04-24T02:43:50;14.90;99.90
12013;DHT22;6065;48.138;16.402;2023-04-24T02:46:16;14.90;99.90
12013;DHT22;6065;48.138;16.402;2023-04-24T02:48:44;14.90;99.90
12013;DHT22;6065;48.138;16.402;2023-04-24T02:51:11;14.80;99.90
12013;DHT22;6065;48.138;16.402;2023-04-24T02:53:38;14.90;99.90
12013;DHT22;6065;48.138;16.402;2023-04-24T02:56:04;14.90;99.90
12013;DHT22;6065;48.138;16.402;2023-04-24T02:58:31;14.90;99.90
12013;DHT22;6065;48.138;16.402;2023-04-24T03:00:58;14.80;99.90
12013;DHT22;6065;48.138;16.402;2023-04-24T03:03:25;14.80;99.90
12013;DHT22;6065;48.138;16.402;2023-04-24T03:05:53;14.80;99.90
12013;DHT22;6065;48.138;16.402;2023-04-24T03:08:21;14.80;99.90
12013;DHT22;6065;48.138;16.402;2023-04-24T03:10:47;14.80;99.90
12013;DHT22;6065;48.138;16.402;2023-04-24T03:13:14;14.70;99.90
12013;DHT22;6065;48.138;16.402;2023-04-24T03:15:41;14.80;99.90
12013;DHT22;6065;48.138;16.402;2023-04-24T03:18:08;14.70;99.90
12013;DHT22;6065;48.138;16.402;2023-04-24T03:20:34;14.60;99.90
12013;DHT22;6065;48.138;16.402;2023-04-24T03:23:03;14.60;99.90
12013;DHT22;6065;48.138;16.402;2023-04-24T03:25:30;14.60;99.90
12013;DHT22;6065;48.138;16.402;2023-04-24T03:27:57;14.60;99.90
12013;DHT22;6065;48.138;16.402;2023-04-24T03:30:23;14.50;99.90
12013;DHT22;6065;48.138;16.402;2023-04-24T03:32:50;14.60;99.90
12013;DHT22;6065;48.138;16.402;2023-04-24T03:35:18;14.60;99.90
12013;DHT22;6065;48.138;16.402;2023-04-24T03:37:45;14.60;99.90
12013;DHT22;6065;48.138;16.402;2023-04-24T03:40:13;14.60;99.90
12013;DHT22;6065;48.138;16.402;2023-04-24T03:42:39;14.60;99.90
12013;DHT22;6065;48.138;16.402;2023-04-24T03:45:07;14.50;99.90
12013;DHT22;6065;48.138;16.402;2023-04-24T03:47:33;14.60;99.90
12013;DHT22;6065;48.138;16.402;2023-04-24T03:50:00;14.60;99.90
12013;DHT22;6065;48.138;16.402;2023-04-24T03:52:27;14.60;99.90
12013;DHT22;6065;48.138;16.402;2023-04-24T03:54:54;14.60;99.90
12013;DHT22;6065;48.138;16.402;2023-04-24T03:57:22;14.60;99.90
12013;DHT22;6065;48.138;16.402;2023-04-24T03:59:48;14.60;99.90
12013;DHT22;6065;48.138;16.402;2023-04-24T04:02:15;14.60;99.90
12013;DHT22;6065;48.138;16.402;2023-04-24T04:04:42;14.50;99.90
12013;DHT22;6065;48.138;16.402;2023-04-24T04:07:08;14.60;99.90
12013;DHT22;6065;48.138;16.402;2023-04-24T04:09:36;14.60;99.90
12013;DHT22;6065;48.138;16.402;2023-04-24T04:12:03;14.60;99.90
12013;DHT22;6065;48.138;16.402;2023-04-24T04:14:31;14.60;99.90
12013;DHT22;6065;48.138;16.402;2023-04-24T04:16:58;14.60;99.90
12013;DHT22;6065;48.138;16.402;2023-04-24T04:19:25;14.60;99.90
12013;DHT22;6065;48.138;16.402;2023-04-24T04:21:51;14.60;99.90
12013;DHT22;6065;48.138;16.402;2023-04-24T04:24:18;14.60;99.90
12013;DHT22;6065;48.138;16.402;2023-04-24T04:26:47;14.60;99.90
12013;DHT22;6065;48.138;16.402;2023-04-24T04:29:16;14.70;99.90
12013;DHT22;6065;48.138;16.402;2023-04-24T04:31:45;14.70;99.90
12013;DHT22;6065;48.138;16.402;2023-04-24T04:34:11;14.60;99.90
12013;DHT22;6065;48.138;16.402;2023-04-24T04:36:39;14.60;99.90
12013;DHT22;6065;48.138;16.402;2023-04-24T04:39:06;14.60;99.90
12013;DHT22;6065;48.138;16.402;2023-04-24T04:41:33;14.70;99.90
12013;DHT22;6065;48.138;16.402;2023-04-24T04:44:00;14.70;99.90
12013;DHT22;6065;48.138;16.402;2023-04-24T04:46:30;14.70;99.90
12013;DHT22;6065;48.138;16.402;2023-04-24T04:48:59;14.70;99.90
12013;DHT22;6065;48.138;16.402;2023-04-24T04:51:26;14.80;99.90
12013;DHT22;6065;48.138;16.402;2023-04-24T04:53:53;14.70;99.90
12013;DHT22;6065;48.138;16.402;2023-04-24T04:56:20;14.70;99.90
12013;DHT22;6065;48.138;16.402;2023-04-24T04:58:47;14.70;99.90
12013;DHT22;6065;48.138;16.402;2023-04-24T05:01:13;14.70;99.90
12013;DHT22;6065;48.138;16.402;2023-04-24T05:03:40;14.70;99.90
12013;DHT22;6065;48.138;16.402;2023-04-24T05:06:08;14.70;99.90
12013;DHT22;6065;48.138;16.402;2023-04-24T05:08:35;14.80;99.90
12013;DHT22;6065;48.138;16.402;2023-04-24T05:11:02;14.70;99.90
12013;DHT22;6065;48.138;16.402;2023-04-24T05:13:28;14.80;99.90
12013;DHT22;6065;48.138;16.402;2023-04-24T05:15:55;14.80;99.90
12013;DHT22;6065;48.138;16.402;2023-04-24T05:18:22;14.80;99.90
12013;DHT22;6065;48.138;16.402;2023-04-24T05:20:48;14.80;99.90
12013;DHT22;6065;48.138;16.402;2023-04-24T05:23:16;14.80;99.90
12013;DHT22;6065;48.138;16.402;2023-04-24T05:25:43;14.80;99.90
12013;DHT22;6065;48.138;16.402;2023-04-24T05:28:10;14.80;99.90
12013;DHT22;6065;48.138;16.402;2023-04-24T05:30:36;14.90;99.90
12013;DHT22;6065;48.138;16.402;2023-04-24T05:33:03;14.90;99.90
12013;DHT22;6065;48.138;16.402;2023-04-24T05:35:30;14.90;99.90
12013;DHT22;6065;48.138;16.402;2023-04-24T05:37:56;15.00;99.90
12013;DHT22;6065;48.138;16.402;2023-04-24T05:40:24;15.00;99.90
12013;DHT22;6065;48.138;16.402;2023-04-24T05:42:51;15.00;99.90
12013;DHT22;6065;48.138;16.402;2023-04-24T05:45:18;15.00;99.90
12013;DHT22;6065;48.138;16.402;2023-04-24T05:47:44;15.00;99.90
12013;DHT22;6065;48.138;16.402;2023-04-24T05:50:11;15.10;99.90
12013;DHT22;6065;48.138;16.402;2023-04-24T05:52:38;15.10;99.90
12013;DHT22;6065;48.138;16.402;2023-04-24T05:55:05;15.20;99.90
12013;DHT22;6065;48.138;16.402;2023-04-24T05:57:33;15.20;99.90
12013;DHT22;6065;48.138;16.402;2023-04-24T05:59:59;15.20;99.90
12013;DHT22;6065;48.138;16.402;2023-04-24T06:02:26;15.20;99.90
12013;DHT22;6065;48.138;16.402;2023-04-24T06:04:57;15.20;99.90
12013;DHT22;6065;48.138;16.402;2023-04-24T06:07:24;15.20;99.90
12013;DHT22;6065;48.138;16.402;2023-04-24T06:09:51;15.20;99.90
12013;DHT22;6065;48.138;16.402;2023-04-24T06:12:18;15.20;99.90
12013;DHT22;6065;48.138;16.402;2023-04-24T06:14:46;15.30;99.90
12013;DHT22;6065;48.138;16.402;2023-04-24T06:17:13;15.30;99.90
12013;DHT22;6065;48.138;16.402;2023-04-24T06:19:39;15.30;99.90
12013;DHT22;6065;48.138;16.402;2023-04-24T06:22:06;15.30;99.90
12013;DHT22;6065;48.138;16.402;2023-04-24T06:24:33;15.30;99.90
12013;DHT22;6065;48.138;16.402;2023-04-24T06:27:00;15.40;99.90
12013;DHT22;6065;48.138;16.402;2023-04-24T06:29:26;15.30;99.90
12013;DHT22;6065;48.138;16.402;2023-04-24T06:31:55;15.30;99.90
12013;DHT22;6065;48.138;16.402;2023-04-24T06:34:21;15.30;99.90
12013;DHT22;6065;48.138;16.402;2023-04-24T06:36:48;15.30;99.90
12013;DHT22;6065;48.138;16.402;2023-04-24T06:39:15;15.40;99.90
12013;DHT22;6065;48.138;16.402;2023-04-24T06:41:41;15.40;99.90
12013;DHT22;6065;48.138;16.402;2023-04-24T06:44:08;15.40;99.90
12013;DHT22;6065;48.138;16.402;2023-04-24T06:46:35;15.40;99.90
12013;DHT22;6065;48.138;16.402;2023-04-24T06:49:03;15.40;99.90
12013;DHT22;6065;48.138;16.402;2023-04-24T06:51:29;15.40;99.90
12013;DHT22;6065;48.138;16.402;2023-04-24T06:53:58;15.50;99.90
12013;DHT22;6065;48.138;16.402;2023-04-24T06:56:25;15.50;99.90
12013;DHT22;6065;48.138;16.402;2023-04-24T06:58:52;15.50;99.90
12013;DHT22;6065;48.138;16.402;2023-04-24T07:01:18;15.50;99.90
12013;DHT22;6065;48.138;16.402;2023-04-24T07:03:45;15.50;99.90
12013;DHT22;6065;48.138;16.402;2023-04-24T07:06:13;15.50;99.90
12013;DHT22;6065;48.138;16.402;2023-04-24T07:08:41;15.50;99.90
12013;DHT22;6065;48.138;16.402;2023-04-24T07:11:08;15.50;99.90
12013;DHT22;6065;48.138;16.402;2023-04-24T07:13:35;15.50;99.90
12013;DHT22;6065;48.138;16.402;2023-04-24T07:16:07;15.50;99.90
12013;DHT22;6065;48.138;16.402;2023-04-24T07:18:33;15.50;99.90
12013;DHT22;6065;48.138;16.402;2023-04-24T07:21:01;15.60;99.90
12013;DHT22;6065;48.138;16.402;2023-04-24T07:23:29;15.60;99.90
12013;DHT22;6065;48.138;16.402;2023-04-24T07:25:57;15.60;99.90
12013;DHT22;6065;48.138;16.402;2023-04-24T07:28:23;15.60;99.90
12013;DHT22;6065;48.138;16.402;2023-04-24T07:30:51;15.60;99.90
12013;DHT22;6065;48.138;16.402;2023-04-24T07:33:19;15.60;99.90
12013;DHT22;6065;48.138;16.402;2023-04-24T07:35:45;15.60;99.90
12013;DHT22;6065;48.138;16.402;2023-04-24T07:38:12;15.60;99.90
12013;DHT22;6065;48.138;16.402;2023-04-24T07:40:40;15.70;99.90
12013;DHT22;6065;48.138;16.402;2023-04-24T07:43:07;15.70;99.90
12013;DHT22;6065;48.138;16.402;2023-04-24T07:45:34;15.70;99.90
12013;DHT22;6065;48.138;16.402;2023-04-24T07:48:02;15.70;99.90
12013;DHT22;6065;48.138;16.402;2023-04-24T07:50:29;15.70;99.90
12013;DHT22;6065;48.138;16.402;2023-04-24T07:52:56;15.70;99.90
12013;DHT22;6065;48.138;16.402;2023-04-24T07:55:23;15.70;99.90
12013;DHT22;6065;48.138;16.402;2023-04-24T07:57:51;15.70;99.90
12013;DHT22;6065;48.138;16.402;2023-04-24T08:00:18;15.70;99.90
12013;DHT22;6065;48.138;16.402;2023-04-24T08:02:45;15.70;99.90
12013;DHT22;6065;48.138;16.402;2023-04-24T08:05:11;15.70;99.90
12013;DHT22;6065;48.138;16.402;2023-04-24T08:07:38;15.60;99.90
12013;DHT22;6065;48.138;16.402;2023-04-24T08:10:09;15.60;99.90
12013;DHT22;6065;48.138;16.402;2023-04-24T08:12:36;15.50;99.90
12013;DHT22;6065;48.138;16.402;2023-04-24T08:15:05;15.50;99.90
12013;DHT22;6065;48.138;16.402;2023-04-24T08:17:32;15.50;99.90
12013;DHT22;6065;48.138;16.402;2023-04-24T08:19:58;15.50;99.90
12013;DHT22;6065;48.138;16.402;2023-04-24T08:22:26;15.50;99.90
12013;DHT22;6065;48.138;16.402;2023-04-24T08:24:53;15.50;99.90
12013;DHT22;6065;48.138;16.402;2023-04-24T08:27:21;15.40;99.90
12013;DHT22;6065;48.138;16.402;2023-04-24T08:29:48;15.40;99.90
12013;DHT22;6065;48.138;16.402;2023-04-24T08:32:16;15.40;99.90
12013;DHT22;6065;48.138;16.402;2023-04-24T08:34:43;15.30;99.90
12013;DHT22;6065;48.138;16.402;2023-04-24T08:37:09;15.30;99.90
12013;DHT22;6065;48.138;16.402;2023-04-24T08:39:36;15.30;99.90
12013;DHT22;6065;48.138;16.402;2023-04-24T08:42:04;15.20;99.90
12013;DHT22;6065;48.138;16.402;2023-04-24T08:44:33;15.20;99.90
12013;DHT22;6065;48.138;16.402;2023-04-24T08:47:00;15.10;99.90
12013;DHT22;6065;48.138;16.402;2023-04-24T08:49:29;15.00;99.90
12013;DHT22;6065;48.138;16.402;2023-04-24T08:51:56;14.90;99.90
12013;DHT22;6065;48.138;16.402;2023-04-24T08:54:25;14.90;99.90
12013;DHT22;6065;48.138;16.402;2023-04-24T08:56:51;14.80;99.90
12013;DHT22;6065;48.138;16.402;2023-04-24T08:59:20;14.80;99.90
12013;DHT22;6065;48.138;16.402;2023-04-24T09:01:47;14.80;99.90
12013;DHT22;6065;48.138;16.402;2023-04-24T09:04:14;14.70;99.90
12013;DHT22;6065;48.138;16.402;2023-04-24T09:06:44;14.70;99.90
12013;DHT22;6065;48.138;16.402;2023-04-24T09:09:11;14.60;99.90
12013;DHT22;6065;48.138;16.402;2023-04-24T09:11:38;14.60;99.90
12013;DHT22;6065;48.138;16.402;2023-04-24T09:14:04;14.70;99.90
12013;DHT22;6065;48.138;16.402;2023-04-24T09:16:31;14.70;99.90
12013;DHT22;6065;48.138;16.402;2023-04-24T09:18:58;14.60;99.90
12013;DHT22;6065;48.138;16.402;2023-04-24T09:21:26;14.60;99.90
12013;DHT22;6065;48.138;16.402;2023-04-24T09:23:59;14.70;99.90
12013;DHT22;6065;48.138;16.402;2023-04-24T09:26:27;14.70;99.90
12013;DHT22;6065;48.138;16.402;2023-04-24T09:28:56;14.60;99.90
12013;DHT22;6065;48.138;16.402;2023-04-24T09:31:23;14.60;99.90
12013;DHT22;6065;48.138;16.402;2023-04-24T09:33:53;14.60;99.90
12013;DHT22;6065;48.138;16.402;2023-04-24T09:36:22;14.60;99.90
12013;DHT22;6065;48.138;16.402;2023-04-24T09:38:53;14.60;99.90
12013;DHT22;6065;48.138;16.402;2023-04-24T09:41:21;14.60;99.90
12013;DHT22;6065;48.138;16.402;2023-04-24T09:43:48;14.60;99.90
12013;DHT22;6065;48.138;16.402;2023-04-24T09:46:15;14.60;99.90
12013;DHT22;6065;48.138;16.402;2023-04-24T09:48:46;14.60;99.90
12013;DHT22;6065;48.138;16.402;2023-04-24T09:51:13;14.60;99.90
12013;DHT22;6065;48.138;16.402;2023-04-24T09:53:45;14.60;99.90
12013;DHT22;6065;48.138;16.402;2023-04-24T09:56:11;14.60;99.90
12013;DHT22;6065;48.138;16.402;2023-04-24T09:58:40;14.60;99.90
12013;DHT22;6065;48.138;16.402;2023-04-24T10:01:07;14.60;99.90
12013;DHT22;6065;48.138;16.402;2023-04-24T10:03:34;14.50;99.90
12013;DHT22;6065;48.138;16.402;2023-04-24T10:06:01;14.60;99.90
12013;DHT22;6065;48.138;16.402;2023-04-24T10:08:32;14.50;99.90
12013;DHT22;6065;48.138;16.402;2023-04-24T10:10:59;14.50;99.90
12013;DHT22;6065;48.138;16.402;2023-04-24T10:13:26;14.60;99.90
12013;DHT22;6065;48.138;16.402;2023-04-24T10:15:55;14.50;99.90
12013;DHT22;6065;48.138;16.402;2023-04-24T10:18:22;14.50;99.90
12013;DHT22;6065;48.138;16.402;2023-04-24T10:20:50;14.50;99.90
12013;DHT22;6065;48.138;16.402;2023-04-24T10:23:17;14.60;99.90
12013;DHT22;6065;48.138;16.402;2023-04-24T10:25:44;14.50;99.90
12013;DHT22;6065;48.138;16.402;2023-04-24T10:28:11;14.60;99.90
12013;DHT22;6065;48.138;16.402;2023-04-24T10:30:38;14.50;99.90
12013;DHT22;6065;48.138;16.402;2023-04-24T10:33:07;14.50;99.90
12013;DHT22;6065;48.138;16.402;2023-04-24T10:35:34;14.50;99.90
12013;DHT22;6065;48.138;16.402;2023-04-24T10:38:02;14.40;99.90
12013;DHT22;6065;48.138;16.402;2023-04-24T10:40:31;14.40;99.90
12013;DHT22;6065;48.138;16.402;2023-04-24T10:42:58;14.40;99.90
12013;DHT22;6065;48.138;16.402;2023-04-24T10:45:25;14.40;99.90
12013;DHT22;6065;48.138;16.402;2023-04-24T10:47:52;14.40;99.90
12013;DHT22;6065;48.138;16.402;2023-04-24T10:50:20;14.40;99.90
12013;DHT22;6065;48.138;16.402;2023-04-24T10:52:48;14.50;99.90
12013;DHT22;6065;48.138;16.402;2023-04-24T10:55:16;14.40;99.90
12013;DHT22;6065;48.138;16.402;2023-04-24T10:58:00;14.40;99.90
12013;DHT22;6065;48.138;16.402;2023-04-24T11:00:27;14.40;99.90
12013;DHT22;6065;48.138;16.402;2023-04-24T11:02:54;14.40;99.90
12013;DHT22;6065;48.138;16.402;2023-04-24T11:05:48;14.40;99.90
12013;DHT22;6065;48.138;16.402;2023-04-24T11:08:12;14.40;99.90
12013;DHT22;6065;48.138;16.402;2023-04-24T11:10:39;14.40;99.90
12013;DHT22;6065;48.138;16.402;2023-04-24T11:13:06;14.30;99.90
12013;DHT22;6065;48.138;16.402;2023-04-24T11:15:33;14.30;99.90
12013;DHT22;6065;48.138;16.402;2023-04-24T11:18:00;14.40;99.90
12013;DHT22;6065;48.138;16.402;2023-04-24T11:20:26;14.40;99.90
12013;DHT22;6065;48.138;16.402;2023-04-24T11:22:54;14.40;99.90
12013;DHT22;6065;48.138;16.402;2023-04-24T11:25:24;14.40;99.90
12013;DHT22;6065;48.138;16.402;2023-04-24T11:27:51;14.40;99.90
12013;DHT22;6065;48.138;16.402;2023-04-24T11:30:29;14.40;99.90
12013;DHT22;6065;48.138;16.402;2023-04-24T11:32:55;14.50;99.90
12013;DHT22;6065;48.138;16.402;2023-04-24T11:35:28;14.40;99.90
12013;DHT22;6065;48.138;16.402;2023-04-24T11:37:55;14.40;99.90
12013;DHT22;6065;48.138;16.402;2023-04-24T11:40:25;14.40;99.90
12013;DHT22;6065;48.138;16.402;2023-04-24T11:42:52;14.40;99.90
12013;DHT22;6065;48.138;16.402;2023-04-24T11:45:21;14.40;99.90
12013;DHT22;6065;48.138;16.402;2023-04-24T11:47:48;14.40;99.90
12013;DHT22;6065;48.138;16.402;2023-04-24T11:50:15;14.40;99.90
12013;DHT22;6065;48.138;16.402;2023-04-24T11:52:43;14.40;99.90
12013;DHT22;6065;48.138;16.402;2023-04-24T11:55:22;14.40;99.90
12013;DHT22;6065;48.138;16.402;2023-04-24T11:57:52;14.40;99.90
12013;DHT22;6065;48.138;16.402;2023-04-24T12:00:20;14.50;99.90
12013;DHT22;6065;48.138;16.402;2023-04-24T12:02:47;14.50;99.90
12013;DHT22;6065;48.138;16.402;2023-04-24T12:05:19;14.50;99.90
12013;DHT22;6065;48.138;16.402;2023-04-24T12:07:45;14.50;99.90
12013;DHT22;6065;48.138;16.402;2023-04-24T12:10:12;14.50;99.90
12013;DHT22;6065;48.138;16.402;2023-04-24T12:12:40;14.50;99.90
12013;DHT22;6065;48.138;16.402;2023-04-24T12:15:08;14.50;99.90
12013;DHT22;6065;48.138;16.402;2023-04-24T12:17:35;14.50;99.90
12013;DHT22;6065;48.138;16.402;2023-04-24T12:20:03;14.50;99.90
12013;DHT22;6065;48.138;16.402;2023-04-24T12:22:42;14.50;99.90
12013;DHT22;6065;48.138;16.402;2023-04-24T12:25:10;14.60;99.90
12013;DHT22;6065;48.138;16.402;2023-04-24T12:27:36;14.60;99.90
12013;DHT22;6065;48.138;16.402;2023-04-24T12:30:04;14.60;99.90
12013;DHT22;6065;48.138;16.402;2023-04-24T12:32:32;14.60;99.90
12013;DHT22;6065;48.138;16.402;2023-04-24T12:34:59;14.60;99.90
12013;DHT22;6065;48.138;16.402;2023-04-24T12:37:26;14.70;99.90
12013;DHT22;6065;48.138;16.402;2023-04-24T12:40:00;14.70;99.90
12013;DHT22;6065;48.138;16.402;2023-04-24T12:42:27;14.70;99.90
12013;DHT22;6065;48.138;16.402;2023-04-24T12:44:55;14.70;99.90
12013;DHT22;6065;48.138;16.402;2023-04-24T12:47:22;14.70;99.90
12013;DHT22;6065;48.138;16.402;2023-04-24T12:49:50;14.70;99.90
12013;DHT22;6065;48.138;16.402;2023-04-24T12:52:17;14.70;99.90
12013;DHT22;6065;48.138;16.402;2023-04-24T12:54:45;14.80;99.90
12013;DHT22;6065;48.138;16.402;2023-04-24T12:57:11;14.80;99.90
12013;DHT22;6065;48.138;16.402;2023-04-24T12:59:38;14.80;99.90
12013;DHT22;6065;48.138;16.402;2023-04-24T13:02:05;14.80;99.90
12013;DHT22;6065;48.138;16.402;2023-04-24T13:04:32;14.80;99.90
12013;DHT22;6065;48.138;16.402;2023-04-24T13:07:00;14.80;99.90
12013;DHT22;6065;48.138;16.402;2023-04-24T13:09:27;14.80;99.90
12013;DHT22;6065;48.138;16.402;2023-04-24T13:11:55;14.80;99.90
12013;DHT22;6065;48.138;16.402;2023-04-24T13:14:21;14.80;99.90
12013;DHT22;6065;48.138;16.402;2023-04-24T13:16:48;14.80;99.90
12013;DHT22;6065;48.138;16.402;2023-04-24T13:19:15;14.80;99.90
12013;DHT22;6065;48.138;16.402;2023-04-24T13:21:42;14.80;99.90
12013;DHT22;6065;48.138;16.402;2023-04-24T13:24:10;14.80;99.90
12013;DHT22;6065;48.138;16.402;2023-04-24T13:26:38;14.80;99.90
12013;DHT22;6065;48.138;16.402;2023-04-24T13:29:04;14.80;99.90
12013;DHT22;6065;48.138;16.402;2023-04-24T13:31:31;14.80;99.90
12013;DHT22;6065;48.138;16.402;2023-04-24T13:33:58;14.80;99.90
12013;DHT22;6065;48.138;16.402;2023-04-24T13:36:25;14.80;99.90
12013;DHT22;6065;48.138;16.402;2023-04-24T13:38:52;14.80;99.90
12013;DHT22;6065;48.138;16.402;2023-04-24T13:41:20;14.80;99.90
12013;DHT22;6065;48.138;16.402;2023-04-24T13:43:46;14.90;99.90
12013;DHT22;6065;48.138;16.402;2023-04-24T13:46:13;14.90;99.90
12013;DHT22;6065;48.138;16.402;2023-04-24T13:48:40;14.90;99.90
12013;DHT22;6065;48.138;16.402;2023-04-24T13:51:07;14.90;99.90
12013;DHT22;6065;48.138;16.402;2023-04-24T13:53:33;14.90;99.90
12013;DHT22;6065;48.138;16.402;2023-04-24T13:56:03;15.00;99.90
12013;DHT22;6065;48.138;16.402;2023-04-24T13:58:32;15.00;99.90
12013;DHT22;6065;48.138;16.402;2023-04-24T14:00:58;15.00;99.90
12013;DHT22;6065;48.138;16.402;2023-04-24T14:03:25;15.00;99.90
12013;DHT22;6065;48.138;16.402;2023-04-24T14:05:52;14.90;99.90
12013;DHT22;6065;48.138;16.402;2023-04-24T14:08:18;14.90;99.90
12013;DHT22;6065;48.138;16.402;2023-04-24T14:10:45;14.90;99.90
12013;DHT22;6065;48.138;16.402;2023-04-24T14:13:12;14.90;99.90
12013;DHT22;6065;48.138;16.402;2023-04-24T14:15:40;14.80;99.90
12013;DHT22;6065;48.138;16.402;2023-04-24T14:18:06;14.80;99.90
12013;DHT22;6065;48.138;16.402;2023-04-24T14:20:33;14.70;99.90
12013;DHT22;6065;48.138;16.402;2023-04-24T14:23:00;14.70;99.90
12013;DHT22;6065;48.138;16.402;2023-04-24T14:25:26;14.70;99.90
12013;DHT22;6065;48.138;16.402;2023-04-24T14:27:53;14.70;99.90
12013;DHT22;6065;48.138;16.402;2023-04-24T14:30:20;14.70;99.90
12013;DHT22;6065;48.138;16.402;2023-04-24T14:32:48;14.70;99.90
12013;DHT22;6065;48.138;16.402;2023-04-24T14:35:15;14.70;99.90
12013;DHT22;6065;48.138;16.402;2023-04-24T14:37:41;14.70;99.90
12013;DHT22;6065;48.138;16.402;2023-04-24T14:40:08;14.70;99.90
12013;DHT22;6065;48.138;16.402;2023-04-24T14:42:35;14.70;99.90
12013;DHT22;6065;48.138;16.402;2023-04-24T14:45:02;14.60;99.90
12013;DHT22;6065;48.138;16.402;2023-04-24T14:47:29;14.60;99.90
12013;DHT22;6065;48.138;16.402;2023-04-24T14:49:57;14.70;99.90
12013;DHT22;6065;48.138;16.402;2023-04-24T14:52:24;14.60;99.90
12013;DHT22;6065;48.138;16.402;2023-04-24T14:54:51;14.60;99.90
12013;DHT22;6065;48.138;16.402;2023-04-24T14:57:17;14.60;99.90
12013;DHT22;6065;48.138;16.402;2023-04-24T14:59:44;14.60;99.90
12013;DHT22;6065;48.138;16.402;2023-04-24T15:02:11;14.60;99.90
12013;DHT22;6065;48.138;16.402;2023-04-24T15:04:37;14.60;99.90
12013;DHT22;6065;48.138;16.402;2023-04-24T15:07:08;14.60;99.90
12013;DHT22;6065;48.138;16.402;2023-04-24T15:09:44;14.50;99.90
12013;DHT22;6065;48.138;16.402;2023-04-24T15:12:12;14.50;99.90
12013;DHT22;6065;48.138;16.402;2023-04-24T15:14:39;14.50;99.90
12013;DHT22;6065;48.138;16.402;2023-04-24T15:17:05;14.50;99.90
12013;DHT22;6065;48.138;16.402;2023-04-24T15:19:32;14.40;99.90
12013;DHT22;6065;48.138;16.402;2023-04-24T15:21:59;14.40;99.90
12013;DHT22;6065;48.138;16.402;2023-04-24T15:24:27;14.40;99.90
12013;DHT22;6065;48.138;16.402;2023-04-24T15:26:53;14.40;99.90
12013;DHT22;6065;48.138;16.402;2023-04-24T15:29:20;14.40;99.90
12013;DHT22;6065;48.138;16.402;2023-04-24T15:31:47;14.40;99.90